createdAt,value
2019-01-26T00:00:10.675Z,1001.26
2019-01-26T00:00:36.780Z,1001.21
2019-01-26T00:01:02.883Z,1001.19
2019-01-26T00:01:28.983Z,1001.16
2019-01-26T00:01:55.122Z,1001.16
2019-01-26T00:02:21.240Z,1001.14
2019-01-26T00:02:47.330Z,1001.14
2019-01-26T00:03:13.465Z,1001.07
2019-01-26T00:03:39.570Z,1001.14
2019-01-26T00:04:05.676Z,1001.14
2019-01-26T00:04:31.806Z,1001.15
2019-01-26T00:04:57.944Z,1001.19
2019-01-26T00:05:24.051Z,1001.15
2019-01-26T00:05:50.157Z,1001.14
2019-01-26T00:06:16.260Z,1001.14
2019-01-26T00:06:42.394Z,1001.11
2019-01-26T00:07:08.561Z,1001.12
2019-01-26T00:07:34.618Z,1001.14
2019-01-26T00:08:00.725Z,1001.11
2019-01-26T00:08:26.832Z,1001.09
2019-01-26T00:08:52.932Z,1001.1
2019-01-26T00:09:19.039Z,1001.07
2019-01-26T00:09:45.143Z,1001.14
2019-01-26T00:10:11.254Z,1001.11
2019-01-26T00:10:37.354Z,1001.09
2019-01-26T00:11:03.488Z,1001.06
2019-01-26T00:11:29.592Z,1001.08
2019-01-26T00:11:55.698Z,1001.08
2019-01-26T00:12:21.802Z,1001.08
2019-01-26T00:12:47.934Z,1001.06
2019-01-26T00:13:14.070Z,1001.08
2019-01-26T00:13:40.173Z,1001.07
2019-01-26T00:14:06.277Z,1001.02
2019-01-26T00:14:32.386Z,1001.09
2019-01-26T00:14:58.485Z,1001
2019-01-26T00:15:24.599Z,1001.01
2019-01-26T00:15:50.798Z,1001
2019-01-26T00:16:20.980Z,1001.03
2019-01-26T00:16:43.994Z,1001.02
2019-01-26T00:17:10.091Z,1000.97
2019-01-26T00:17:36.229Z,1000.99
2019-01-26T00:18:02.361Z,1001.01
2019-01-26T00:18:28.467Z,1000.99
2019-01-26T00:18:54.575Z,1000.99
2019-01-26T00:19:20.679Z,1001
2019-01-26T00:19:46.792Z,1001.01
2019-01-26T00:20:13.251Z,1001
2019-01-26T00:20:40.847Z,1001
2019-01-26T00:21:06.959Z,1001.03
2019-01-26T00:21:33.066Z,1001.02
2019-01-26T00:21:59.215Z,1001.03
2019-01-26T00:22:25.418Z,1000.99
2019-01-26T00:22:51.523Z,1001.02
2019-01-26T00:23:17.659Z,1001.08
2019-01-26T00:23:43.789Z,1001.07
2019-01-26T00:24:09.925Z,1001.03
2019-01-26T00:24:36.054Z,1001.01
2019-01-26T00:25:02.164Z,1001.06
2019-01-26T00:25:28.305Z,1001
2019-01-26T00:25:54.401Z,1000.98
2019-01-26T00:26:20.541Z,1000.92
2019-01-26T00:26:46.670Z,1001.02
2019-01-26T00:27:12.987Z,1001
2019-01-26T00:27:39.119Z,1001
2019-01-26T00:28:05.261Z,1001.04
2019-01-26T00:28:31.780Z,1000.94
2019-01-26T00:28:57.889Z,1001.02
2019-01-26T00:29:23.991Z,1000.97
2019-01-26T00:29:50.156Z,1000.97
2019-01-26T00:30:16.459Z,1000.98
2019-01-26T00:30:42.596Z,1000.94
2019-01-26T00:31:08.737Z,1000.93
2019-01-26T00:31:34.866Z,1000.91
2019-01-26T00:32:00.991Z,1000.92
2019-01-26T00:32:27.090Z,1000.96
2019-01-26T00:32:53.204Z,1000.92
2019-01-26T00:33:19.355Z,1000.92
2019-01-26T00:33:45.488Z,1000.94
2019-01-26T00:34:11.621Z,1000.89
2019-01-26T00:34:37.777Z,1000.93
2019-01-26T00:35:03.947Z,1000.91
2019-01-26T00:35:30.052Z,1000.9
2019-01-26T00:35:56.195Z,1000.91
2019-01-26T00:36:22.344Z,1000.92
2019-01-26T00:36:48.898Z,1000.91
2019-01-26T00:37:15.108Z,1000.9
2019-01-26T00:37:41.241Z,1000.82
2019-01-26T00:38:07.368Z,1000.82
2019-01-26T00:38:33.497Z,1000.8
2019-01-26T00:38:59.743Z,1000.85
2019-01-26T00:39:26.508Z,1000.82
2019-01-26T00:39:52.911Z,1000.82
2019-01-26T00:40:19.170Z,1000.85
2019-01-26T00:40:45.251Z,1000.84
2019-01-26T00:41:11.378Z,1000.84
2019-01-26T00:41:37.557Z,1000.84
2019-01-26T00:42:03.658Z,1000.84
2019-01-26T00:42:29.808Z,1000.79
2019-01-26T00:42:55.935Z,1000.8
2019-01-26T00:43:22.064Z,1000.84
2019-01-26T00:43:48.205Z,1000.77
2019-01-26T00:44:14.368Z,1000.81
2019-01-26T00:44:40.500Z,1000.79
2019-01-26T00:45:06.629Z,1000.81
2019-01-26T00:45:32.736Z,1000.82
2019-01-26T00:45:58.844Z,1000.87
2019-01-26T00:46:28.426Z,1000.85
2019-01-26T00:46:52.051Z,1000.83
2019-01-26T00:47:18.157Z,1000.86
2019-01-26T00:47:44.295Z,1000.89
2019-01-26T00:48:10.396Z,1000.78
2019-01-26T00:48:36.502Z,1000.83
2019-01-26T00:49:02.608Z,1000.83
2019-01-26T00:49:28.728Z,1000.83
2019-01-26T00:49:54.829Z,1000.85
2019-01-26T00:50:20.930Z,1000.89
2019-01-26T00:50:47.036Z,1000.89
2019-01-26T00:51:17.086Z,1000.93
2019-01-26T00:51:40.281Z,1000.86
2019-01-26T00:52:06.803Z,1000.88
2019-01-26T00:52:33.000Z,1000.92
2019-01-26T00:52:59.110Z,1000.89
2019-01-26T00:53:25.211Z,1000.88
2019-01-26T00:53:51.525Z,1000.82
2019-01-26T00:54:17.637Z,1000.78
2019-01-26T00:54:43.741Z,1000.85
2019-01-26T00:55:09.879Z,1000.79
2019-01-26T00:55:35.981Z,1000.82
2019-01-26T00:56:02.089Z,1000.83
2019-01-26T00:56:28.192Z,1000.8
2019-01-26T00:56:54.294Z,1000.9
2019-01-26T00:57:20.408Z,1000.85
2019-01-26T00:57:46.542Z,1000.88
2019-01-26T00:58:12.644Z,1000.84
2019-01-26T00:58:39.752Z,1000.86
2019-01-26T00:59:06.082Z,1000.83
2019-01-26T00:59:32.828Z,1000.83
2019-01-26T00:59:59.083Z,1000.86
2019-01-26T01:00:25.192Z,1000.87
2019-01-26T01:00:51.419Z,1000.78
2019-01-26T01:01:17.694Z,1000.81
2019-01-26T01:01:43.800Z,1000.81
2019-01-26T01:02:09.916Z,1000.86
2019-01-26T01:02:36.026Z,1000.85
2019-01-26T01:03:02.160Z,1000.83
2019-01-26T01:03:28.602Z,1000.82
2019-01-26T01:03:54.940Z,1000.87
2019-01-26T01:04:21.064Z,1000.86
2019-01-26T01:04:47.168Z,1000.85
2019-01-26T01:05:13.300Z,1000.82
2019-01-26T01:05:39.406Z,1000.9
2019-01-26T01:06:05.535Z,1000.86
2019-01-26T01:06:33.230Z,1000.89
2019-01-26T01:07:00.303Z,1000.81
2019-01-26T01:07:26.959Z,1000.91
2019-01-26T01:07:53.290Z,1000.81
2019-01-26T01:08:19.599Z,1000.81
2019-01-26T01:08:45.857Z,1000.77
2019-01-26T01:09:12.691Z,1000.73
2019-01-26T01:09:39.446Z,1000.71
2019-01-26T01:10:06.404Z,1000.72
2019-01-26T01:10:32.711Z,1000.75
2019-01-26T01:10:58.944Z,1000.76
2019-01-26T01:11:25.114Z,1000.74
2019-01-26T01:11:51.230Z,1000.7
2019-01-26T01:12:17.411Z,1000.77
2019-01-26T01:12:43.537Z,1000.74
2019-01-26T01:13:09.653Z,1000.74
2019-01-26T01:13:35.821Z,1000.73
2019-01-26T01:14:01.942Z,1000.79
2019-01-26T01:14:28.045Z,1000.73
2019-01-26T01:14:54.207Z,1000.7
2019-01-26T01:15:20.313Z,1000.83
2019-01-26T01:15:46.446Z,1000.81
2019-01-26T01:16:12.626Z,1000.81
2019-01-26T01:16:39.688Z,1000.82
2019-01-26T01:17:05.847Z,1000.8
2019-01-26T01:17:31.951Z,1000.82
2019-01-26T01:17:58.118Z,1000.82
2019-01-26T01:18:24.246Z,1000.75
2019-01-26T01:18:50.376Z,1000.71
2019-01-26T01:19:16.639Z,1000.7
2019-01-26T01:19:42.723Z,1000.72
2019-01-26T01:20:08.873Z,1000.76
2019-01-26T01:20:35.066Z,1000.83
2019-01-26T01:21:01.877Z,1000.69
2019-01-26T01:21:27.339Z,1000.76
2019-01-26T01:21:53.525Z,1000.75
2019-01-26T01:22:19.673Z,1000.77
2019-01-26T01:22:45.824Z,1000.77
2019-01-26T01:23:11.927Z,1000.78
2019-01-26T01:23:38.220Z,1000.76
2019-01-26T01:24:04.397Z,1000.77
2019-01-26T01:24:30.503Z,1000.71
2019-01-26T01:24:56.611Z,1000.74
2019-01-26T01:25:22.723Z,1000.73
2019-01-26T01:25:48.865Z,1000.69
2019-01-26T01:26:15.218Z,1000.64
2019-01-26T01:26:41.320Z,1000.69
2019-01-26T01:27:07.440Z,1000.66
2019-01-26T01:27:33.549Z,1000.63
2019-01-26T01:27:59.653Z,1000.63
2019-01-26T01:28:25.764Z,1000.55
2019-01-26T01:28:51.877Z,1000.62
2019-01-26T01:29:18.275Z,1000.57
2019-01-26T01:29:44.381Z,1000.63
2019-01-26T01:30:10.624Z,1000.61
2019-01-26T01:30:36.691Z,1000.62
2019-01-26T01:31:02.857Z,1000.58
2019-01-26T01:31:28.966Z,1000.62
2019-01-26T01:31:55.072Z,1000.56
2019-01-26T01:32:21.235Z,1000.56
2019-01-26T01:32:47.358Z,1000.62
2019-01-26T01:33:13.461Z,1000.53
2019-01-26T01:33:39.591Z,1000.62
2019-01-26T01:34:05.690Z,1000.57
2019-01-26T01:34:31.854Z,1000.58
2019-01-26T01:34:57.967Z,1000.61
2019-01-26T01:35:24.169Z,1000.53
2019-01-26T01:35:50.278Z,1000.54
2019-01-26T01:36:16.414Z,1000.56
2019-01-26T01:36:42.537Z,1000.57
2019-01-26T01:37:08.635Z,1000.54
2019-01-26T01:37:34.768Z,1000.61
2019-01-26T01:38:00.866Z,1000.53
2019-01-26T01:38:26.995Z,1000.56
2019-01-26T01:38:53.098Z,1000.55
2019-01-26T01:39:19.318Z,1000.53
2019-01-26T01:39:45.451Z,1000.56
2019-01-26T01:40:11.553Z,1000.52
2019-01-26T01:40:37.655Z,1000.58
2019-01-26T01:41:03.797Z,1000.51
2019-01-26T01:41:29.885Z,1000.45
2019-01-26T01:41:55.998Z,1000.5
2019-01-26T01:42:22.102Z,1000.47
2019-01-26T01:42:48.198Z,1000.45
2019-01-26T01:43:14.322Z,1000.46
2019-01-26T01:43:40.433Z,1000.5
2019-01-26T01:44:06.533Z,1000.45
2019-01-26T01:44:32.676Z,1000.52
2019-01-26T01:44:58.795Z,1000.46
2019-01-26T01:45:24.912Z,1000.49
2019-01-26T01:45:51.008Z,1000.47
2019-01-26T01:46:17.184Z,1000.48
2019-01-26T01:46:44.270Z,1000.46
2019-01-26T01:47:10.372Z,1000.45
2019-01-26T01:47:36.598Z,1000.44
2019-01-26T01:48:02.735Z,1000.48
2019-01-26T01:48:28.837Z,1000.5
2019-01-26T01:48:54.952Z,1000.45
2019-01-26T01:49:21.053Z,1000.47
2019-01-26T01:49:47.168Z,1000.52
2019-01-26T01:50:13.275Z,1000.56
2019-01-26T01:50:39.385Z,1000.48
2019-01-26T01:51:05.634Z,1000.5
2019-01-26T01:51:31.747Z,1000.51
2019-01-26T01:51:57.910Z,1000.56
2019-01-26T01:52:24.014Z,1000.53
2019-01-26T01:52:50.144Z,1000.53
2019-01-26T01:53:16.302Z,1000.51
2019-01-26T01:53:42.429Z,1000.52
2019-01-26T01:54:08.543Z,1000.56
2019-01-26T01:54:34.651Z,1000.49
2019-01-26T01:55:00.770Z,1000.49
2019-01-26T01:55:26.969Z,1000.51
2019-01-26T01:55:53.089Z,1000.46
2019-01-26T01:56:19.216Z,1000.47
2019-01-26T01:56:45.344Z,1000.46
2019-01-26T01:57:11.456Z,1000.46
2019-01-26T01:57:37.577Z,1000.48
2019-01-26T01:58:03.676Z,1000.46
2019-01-26T01:58:29.791Z,1000.48
2019-01-26T01:58:55.949Z,1000.49
2019-01-26T01:59:22.085Z,1000.47
2019-01-26T01:59:48.192Z,1000.45
2019-01-26T02:00:14.297Z,1000.45
2019-01-26T02:00:40.428Z,1000.47
2019-01-26T02:01:06.535Z,1000.46
2019-01-26T02:01:32.662Z,1000.5
2019-01-26T02:01:58.773Z,1000.43
2019-01-26T02:02:24.901Z,1000.47
2019-01-26T02:02:50.997Z,1000.45
2019-01-26T02:03:17.104Z,1000.46
2019-01-26T02:03:43.203Z,1000.52
2019-01-26T02:04:09.379Z,1000.43
2019-01-26T02:04:35.442Z,1000.44
2019-01-26T02:05:01.612Z,1000.45
2019-01-26T02:05:27.695Z,1000.43
2019-01-26T02:05:53.816Z,1000.43
2019-01-26T02:06:19.914Z,1000.43
2019-01-26T02:06:46.024Z,1000.42
2019-01-26T02:07:12.161Z,1000.41
2019-01-26T02:07:38.269Z,1000.39
2019-01-26T02:08:04.400Z,1000.36
2019-01-26T02:08:30.500Z,1000.4
2019-01-26T02:08:56.612Z,1000.44
2019-01-26T02:09:22.714Z,1000.43
2019-01-26T02:09:48.826Z,1000.43
2019-01-26T02:10:14.924Z,1000.41
2019-01-26T02:10:41.032Z,1000.44
2019-01-26T02:11:07.147Z,1000.4
2019-01-26T02:11:33.290Z,1000.46
2019-01-26T02:11:59.421Z,1000.42
2019-01-26T02:12:25.561Z,1000.42
2019-01-26T02:12:51.670Z,1000.43
2019-01-26T02:13:17.778Z,1000.45
2019-01-26T02:13:43.908Z,1000.39
2019-01-26T02:14:10.065Z,1000.36
2019-01-26T02:14:36.170Z,1000.38
2019-01-26T02:15:02.283Z,1000.35
2019-01-26T02:15:28.386Z,1000.44
2019-01-26T02:15:54.529Z,1000.38
2019-01-26T02:16:20.625Z,1000.39
2019-01-26T02:16:50.109Z,1000.44
2019-01-26T02:17:13.830Z,1000.38
2019-01-26T02:17:39.963Z,1000.42
2019-01-26T02:18:06.095Z,1000.41
2019-01-26T02:18:32.195Z,1000.43
2019-01-26T02:18:58.368Z,1000.4
2019-01-26T02:19:24.418Z,1000.42
2019-01-26T02:19:50.543Z,1000.36
2019-01-26T02:20:16.639Z,1000.41
2019-01-26T02:20:42.755Z,1000.36
2019-01-26T02:21:08.880Z,1000.36
2019-01-26T02:21:34.998Z,1000.39
2019-01-26T02:22:01.095Z,1000.36
2019-01-26T02:22:27.197Z,1000.41
2019-01-26T02:22:53.310Z,1000.44
2019-01-26T02:23:19.408Z,1000.42
2019-01-26T02:23:45.538Z,1000.41
2019-01-26T02:24:11.641Z,1000.43
2019-01-26T02:24:37.748Z,1000.39
2019-01-26T02:25:03.856Z,1000.39
2019-01-26T02:25:29.978Z,1000.44
2019-01-26T02:25:56.174Z,1000.42
2019-01-26T02:26:22.281Z,1000.46
2019-01-26T02:26:48.384Z,1000.36
2019-01-26T02:27:14.492Z,1000.39
2019-01-26T02:27:40.588Z,1000.41
2019-01-26T02:28:06.692Z,1000.39
2019-01-26T02:28:32.804Z,1000.4
2019-01-26T02:28:58.936Z,1000.37
2019-01-26T02:29:25.043Z,1000.38
2019-01-26T02:29:51.184Z,1000.41
2019-01-26T02:30:17.308Z,1000.38
2019-01-26T02:30:43.477Z,1000.4
2019-01-26T02:31:09.587Z,1000.39
2019-01-26T02:31:35.712Z,1000.43
2019-01-26T02:32:01.818Z,1000.42
2019-01-26T02:32:27.929Z,1000.39
2019-01-26T02:32:54.709Z,1000.46
2019-01-26T02:33:20.887Z,1000.41
2019-01-26T02:33:46.990Z,1000.43
2019-01-26T02:34:13.118Z,1000.4
2019-01-26T02:34:39.228Z,1000.41
2019-01-26T02:35:05.477Z,1000.44
2019-01-26T02:35:31.588Z,1000.4
2019-01-26T02:35:57.688Z,1000.4
2019-01-26T02:36:23.827Z,1000.45
2019-01-26T02:36:49.926Z,1000.41
2019-01-26T02:37:16.031Z,1000.44
2019-01-26T02:37:42.138Z,1000.41
2019-01-26T02:38:08.242Z,1000.43
2019-01-26T02:38:34.353Z,1000.39
2019-01-26T02:39:00.461Z,1000.38
2019-01-26T02:39:26.618Z,1000.32
2019-01-26T02:39:52.728Z,1000.32
2019-01-26T02:40:18.830Z,1000.38
2019-01-26T02:40:44.936Z,1000.39
2019-01-26T02:41:11.053Z,1000.36
2019-01-26T02:41:37.154Z,1000.3
2019-01-26T02:42:03.253Z,1000.3
2019-01-26T02:42:29.362Z,1000.33
2019-01-26T02:42:55.491Z,1000.37
2019-01-26T02:43:21.624Z,1000.38
2019-01-26T02:43:47.738Z,1000.31
2019-01-26T02:44:13.849Z,1000.33
2019-01-26T02:44:39.950Z,1000.38
2019-01-26T02:45:06.052Z,1000.35
2019-01-26T02:45:32.181Z,1000.33
2019-01-26T02:45:58.286Z,1000.33
2019-01-26T02:46:24.419Z,1000.34
2019-01-26T02:46:57.712Z,1000.34
2019-01-26T02:47:18.680Z,1000.33
2019-01-26T02:47:44.839Z,1000.38
2019-01-26T02:48:10.974Z,1000.35
2019-01-26T02:48:37.079Z,1000.36
2019-01-26T02:49:03.184Z,1000.35
2019-01-26T02:49:29.291Z,1000.27
2019-01-26T02:49:55.399Z,1000.28
2019-01-26T02:50:21.530Z,1000.33
2019-01-26T02:50:47.616Z,1000.36
2019-01-26T02:51:13.774Z,1000.32
2019-01-26T02:51:39.866Z,1000.3
2019-01-26T02:52:05.974Z,1000.26
2019-01-26T02:52:32.081Z,1000.31
2019-01-26T02:52:58.190Z,1000.28
2019-01-26T02:53:24.294Z,1000.33
2019-01-26T02:53:50.397Z,1000.3
2019-01-26T02:54:16.499Z,1000.32
2019-01-26T02:54:42.603Z,1000.28
2019-01-26T02:55:08.747Z,1000.29
2019-01-26T02:55:34.993Z,1000.22
2019-01-26T02:56:01.096Z,1000.21
2019-01-26T02:56:27.231Z,1000.23
2019-01-26T02:56:53.332Z,1000.25
2019-01-26T02:57:19.466Z,1000.22
2019-01-26T02:57:45.634Z,1000.23
2019-01-26T02:58:11.747Z,1000.16
2019-01-26T02:58:37.841Z,1000.18
2019-01-26T02:59:03.952Z,1000.13
2019-01-26T02:59:30.093Z,1000.17
2019-01-26T02:59:56.184Z,1000.1
2019-01-26T03:00:22.314Z,1000.16
2019-01-26T03:00:48.422Z,1000.16
2019-01-26T03:01:14.531Z,1000.17
2019-01-26T03:01:40.645Z,1000.13
2019-01-26T03:02:06.743Z,1000.15
2019-01-26T03:02:32.885Z,1000.13
2019-01-26T03:02:58.987Z,1000.11
2019-01-26T03:03:25.123Z,1000.16
2019-01-26T03:03:51.228Z,1000.17
2019-01-26T03:04:17.326Z,1000.16
2019-01-26T03:04:43.437Z,1000.11
2019-01-26T03:05:09.564Z,1000.08
2019-01-26T03:05:35.709Z,1000.07
2019-01-26T03:06:01.845Z,1000.08
2019-01-26T03:06:27.975Z,1000.1
2019-01-26T03:06:54.084Z,1000.08
2019-01-26T03:07:20.192Z,1000.11
2019-01-26T03:07:46.318Z,1000.12
2019-01-26T03:08:12.423Z,1000.1
2019-01-26T03:08:38.557Z,1000.09
2019-01-26T03:09:04.671Z,1000.1
2019-01-26T03:09:30.803Z,1000.14
2019-01-26T03:09:56.950Z,1000.12
2019-01-26T03:10:23.050Z,1000.12
2019-01-26T03:10:49.152Z,1000.06
2019-01-26T03:11:15.261Z,1000.12
2019-01-26T03:11:41.360Z,1000.01
2019-01-26T03:12:07.472Z,1000.05
2019-01-26T03:12:33.602Z,1000.08
2019-01-26T03:12:59.685Z,1000.07
2019-01-26T03:13:25.852Z,1000.09
2019-01-26T03:13:51.958Z,1000.07
2019-01-26T03:14:18.093Z,1000.08
2019-01-26T03:14:44.194Z,1000.08
2019-01-26T03:15:10.299Z,1000.02
2019-01-26T03:15:36.432Z,1000.05
2019-01-26T03:16:02.562Z,1000.05
2019-01-26T03:16:28.662Z,1000.03
2019-01-26T03:16:54.773Z,1000
2019-01-26T03:17:22.196Z,1000.03
2019-01-26T03:17:48.329Z,1000
2019-01-26T03:18:14.461Z,1000.03
2019-01-26T03:18:40.575Z,1000.01
2019-01-26T03:19:06.742Z,999.99
2019-01-26T03:19:32.842Z,1000.06
2019-01-26T03:19:58.953Z,999.98
2019-01-26T03:20:25.117Z,1000.05
2019-01-26T03:20:51.251Z,1000.07
2019-01-26T03:21:17.352Z,1000.02
2019-01-26T03:21:43.459Z,1000.03
2019-01-26T03:22:09.597Z,999.99
2019-01-26T03:22:35.699Z,1000.08
2019-01-26T03:23:01.808Z,1000.03
2019-01-26T03:23:27.937Z,1000.04
2019-01-26T03:23:54.045Z,999.98
2019-01-26T03:24:20.178Z,1000.03
2019-01-26T03:24:46.286Z,1000.01
2019-01-26T03:25:12.395Z,1000.01
2019-01-26T03:25:38.525Z,1000.01
2019-01-26T03:26:04.633Z,1000.03
2019-01-26T03:26:30.736Z,999.97
2019-01-26T03:26:56.844Z,999.96
2019-01-26T03:27:22.979Z,999.97
2019-01-26T03:27:49.082Z,999.97
2019-01-26T03:28:15.209Z,999.96
2019-01-26T03:28:41.313Z,999.96
2019-01-26T03:29:07.454Z,999.93
2019-01-26T03:29:33.615Z,999.88
2019-01-26T03:29:59.715Z,999.92
2019-01-26T03:30:25.835Z,999.87
2019-01-26T03:30:52.073Z,999.96
2019-01-26T03:31:18.279Z,999.93
2019-01-26T03:31:44.434Z,999.96
2019-01-26T03:32:10.601Z,999.95
2019-01-26T03:32:36.739Z,1000
2019-01-26T03:33:02.881Z,999.98
2019-01-26T03:33:29.066Z,999.99
2019-01-26T03:33:55.162Z,1000.04
2019-01-26T03:34:21.269Z,1000
2019-01-26T03:34:47.399Z,999.98
2019-01-26T03:35:13.510Z,1000.05
2019-01-26T03:35:39.622Z,1000.04
2019-01-26T03:36:05.731Z,1000
2019-01-26T03:36:31.849Z,999.99
2019-01-26T03:36:57.954Z,999.95
2019-01-26T03:37:24.056Z,999.93
2019-01-26T03:37:50.168Z,999.9
2019-01-26T03:38:16.275Z,999.91
2019-01-26T03:38:42.407Z,999.89
2019-01-26T03:39:08.531Z,999.88
2019-01-26T03:39:34.632Z,999.89
2019-01-26T03:40:00.746Z,999.86
2019-01-26T03:40:26.878Z,999.87
2019-01-26T03:40:52.989Z,999.87
2019-01-26T03:41:19.098Z,999.8
2019-01-26T03:41:45.201Z,999.8
2019-01-26T03:42:11.304Z,999.83
2019-01-26T03:42:37.410Z,999.83
2019-01-26T03:43:03.529Z,999.86
2019-01-26T03:43:29.654Z,999.84
2019-01-26T03:43:55.750Z,999.82
2019-01-26T03:44:21.861Z,999.79
2019-01-26T03:44:47.960Z,999.8
2019-01-26T03:45:14.065Z,999.84
2019-01-26T03:45:40.168Z,999.78
2019-01-26T03:46:06.299Z,999.77
2019-01-26T03:46:32.411Z,999.79
2019-01-26T03:46:58.519Z,999.81
2019-01-26T03:47:25.609Z,999.73
2019-01-26T03:47:51.717Z,999.73
2019-01-26T03:48:17.818Z,999.74
2019-01-26T03:48:43.924Z,999.74
2019-01-26T03:49:10.027Z,999.67
2019-01-26T03:49:36.167Z,999.73
2019-01-26T03:50:03.264Z,999.72
2019-01-26T03:50:29.390Z,999.75
2019-01-26T03:50:55.529Z,999.69
2019-01-26T03:51:21.666Z,999.7
2019-01-26T03:51:47.767Z,999.61
2019-01-26T03:52:13.881Z,999.65
2019-01-26T03:52:39.984Z,999.72
2019-01-26T03:53:06.115Z,999.63
2019-01-26T03:53:32.223Z,999.68
2019-01-26T03:53:58.359Z,999.66
2019-01-26T03:54:24.526Z,999.69
2019-01-26T03:54:50.635Z,999.68
2019-01-26T03:55:16.805Z,999.7
2019-01-26T03:55:42.897Z,999.68
2019-01-26T03:56:09.040Z,999.7
2019-01-26T03:56:35.148Z,999.69
2019-01-26T03:57:01.257Z,999.72
2019-01-26T03:57:27.363Z,999.74
2019-01-26T03:57:53.515Z,999.78
2019-01-26T03:58:19.639Z,999.75
2019-01-26T03:58:45.739Z,999.74
2019-01-26T03:59:11.873Z,999.72
2019-01-26T03:59:38.008Z,999.69
2019-01-26T04:00:04.108Z,999.71
2019-01-26T04:00:30.217Z,999.75
2019-01-26T04:00:56.328Z,999.72
2019-01-26T04:01:22.431Z,999.71
2019-01-26T04:01:48.575Z,999.79
2019-01-26T04:02:14.689Z,999.7
2019-01-26T04:02:40.798Z,999.76
2019-01-26T04:03:06.949Z,999.7
2019-01-26T04:03:33.062Z,999.77
2019-01-26T04:03:59.194Z,999.77
2019-01-26T04:04:25.330Z,999.75
2019-01-26T04:04:51.423Z,999.63
2019-01-26T04:05:17.556Z,999.68
2019-01-26T04:05:43.685Z,999.77
2019-01-26T04:06:09.793Z,999.78
2019-01-26T04:06:35.899Z,999.78
2019-01-26T04:07:02.092Z,999.74
2019-01-26T04:07:28.228Z,999.73
2019-01-26T04:07:54.329Z,999.74
2019-01-26T04:08:20.433Z,999.75
2019-01-26T04:08:46.538Z,999.75
2019-01-26T04:09:12.641Z,999.72
2019-01-26T04:09:38.755Z,999.72
2019-01-26T04:10:04.853Z,999.73
2019-01-26T04:10:30.980Z,999.69
2019-01-26T04:10:57.088Z,999.67
2019-01-26T04:11:23.207Z,999.73
2019-01-26T04:11:49.314Z,999.65
2019-01-26T04:12:15.444Z,999.76
2019-01-26T04:12:41.585Z,999.72
2019-01-26T04:13:07.671Z,999.68
2019-01-26T04:13:33.776Z,999.72
2019-01-26T04:13:59.886Z,999.68
2019-01-26T04:14:26.020Z,999.73
2019-01-26T04:14:52.148Z,999.66
2019-01-26T04:15:18.253Z,999.69
2019-01-26T04:15:44.357Z,999.65
2019-01-26T04:16:10.470Z,999.61
2019-01-26T04:16:36.635Z,999.62
2019-01-26T04:17:02.771Z,999.59
2019-01-26T04:17:29.892Z,999.62
2019-01-26T04:17:56.001Z,999.6
2019-01-26T04:18:22.155Z,999.57
2019-01-26T04:18:48.265Z,999.55
2019-01-26T04:19:14.362Z,999.56
2019-01-26T04:19:40.504Z,999.56
2019-01-26T04:20:06.613Z,999.58
2019-01-26T04:20:32.770Z,999.6
2019-01-26T04:20:58.912Z,999.63
2019-01-26T04:21:25.039Z,999.64
2019-01-26T04:21:51.147Z,999.63
2019-01-26T04:22:17.256Z,999.59
2019-01-26T04:22:43.455Z,999.64
2019-01-26T04:23:09.610Z,999.67
2019-01-26T04:23:35.722Z,999.64
2019-01-26T04:24:01.826Z,999.57
2019-01-26T04:24:27.925Z,999.62
2019-01-26T04:24:54.041Z,999.53
2019-01-26T04:25:20.164Z,999.54
2019-01-26T04:25:46.266Z,999.54
2019-01-26T04:26:12.400Z,999.52
2019-01-26T04:26:38.502Z,999.55
2019-01-26T04:27:04.636Z,999.58
2019-01-26T04:27:30.796Z,999.54
2019-01-26T04:27:56.899Z,999.52
2019-01-26T04:28:23.054Z,999.53
2019-01-26T04:28:49.188Z,999.5
2019-01-26T04:29:16.284Z,999.48
2019-01-26T04:29:42.400Z,999.52
2019-01-26T04:30:08.505Z,999.53
2019-01-26T04:30:34.636Z,999.54
2019-01-26T04:31:00.741Z,999.5
2019-01-26T04:31:26.868Z,999.47
2019-01-26T04:31:52.975Z,999.51
2019-01-26T04:32:19.071Z,999.51
2019-01-26T04:32:45.207Z,999.42
2019-01-26T04:33:11.314Z,999.52
2019-01-26T04:33:37.409Z,999.51
2019-01-26T04:34:03.518Z,999.49
2019-01-26T04:34:29.653Z,999.51
2019-01-26T04:34:55.807Z,999.55
2019-01-26T04:35:21.919Z,999.48
2019-01-26T04:35:48.018Z,999.51
2019-01-26T04:36:14.137Z,999.49
2019-01-26T04:36:40.235Z,999.42
2019-01-26T04:37:06.369Z,999.44
2019-01-26T04:37:32.481Z,999.45
2019-01-26T04:37:58.587Z,999.47
2019-01-26T04:38:24.697Z,999.51
2019-01-26T04:38:50.829Z,999.46
2019-01-26T04:39:16.929Z,999.5
2019-01-26T04:39:43.036Z,999.56
2019-01-26T04:40:09.139Z,999.47
2019-01-26T04:40:35.242Z,999.41
2019-01-26T04:41:01.347Z,999.51
2019-01-26T04:41:27.459Z,999.49
2019-01-26T04:41:53.595Z,999.49
2019-01-26T04:42:19.695Z,999.48
2019-01-26T04:42:45.861Z,999.41
2019-01-26T04:43:11.967Z,999.41
2019-01-26T04:43:38.105Z,999.46
2019-01-26T04:44:04.269Z,999.5
2019-01-26T04:44:30.377Z,999.46
2019-01-26T04:44:56.481Z,999.46
2019-01-26T04:45:22.658Z,999.47
2019-01-26T04:45:48.813Z,999.48
2019-01-26T04:46:14.883Z,999.41
2019-01-26T04:46:40.993Z,999.46
2019-01-26T04:47:07.091Z,999.4
2019-01-26T04:47:35.182Z,999.46
2019-01-26T04:48:01.291Z,999.44
2019-01-26T04:48:27.392Z,999.42
2019-01-26T04:48:53.526Z,999.36
2019-01-26T04:49:19.666Z,999.36
2019-01-26T04:49:45.769Z,999.41
2019-01-26T04:50:11.868Z,999.38
2019-01-26T04:50:37.971Z,999.37
2019-01-26T04:51:04.075Z,999.4
2019-01-26T04:51:30.205Z,999.41
2019-01-26T04:51:56.308Z,999.43
2019-01-26T04:52:22.416Z,999.4
2019-01-26T04:52:48.551Z,999.4
2019-01-26T04:53:14.658Z,999.39
2019-01-26T04:53:40.760Z,999.42
2019-01-26T04:54:06.869Z,999.28
2019-01-26T04:54:32.973Z,999.35
2019-01-26T04:54:59.131Z,999.33
2019-01-26T04:55:25.231Z,999.37
2019-01-26T04:55:51.360Z,999.37
2019-01-26T04:56:17.506Z,999.39
2019-01-26T04:56:43.601Z,999.29
2019-01-26T04:57:09.703Z,999.38
2019-01-26T04:57:35.918Z,999.31
2019-01-26T04:58:02.072Z,999.34
2019-01-26T04:58:28.203Z,999.28
2019-01-26T04:58:54.364Z,999.38
2019-01-26T04:59:20.471Z,999.18
2019-01-26T04:59:46.572Z,999.28
2019-01-26T05:00:12.680Z,999.41
2019-01-26T05:00:38.781Z,999.31
2019-01-26T05:01:04.891Z,999.33
2019-01-26T05:01:30.991Z,999.36
2019-01-26T05:01:57.103Z,999.39
2019-01-26T05:02:23.207Z,999.37
2019-01-26T05:02:49.311Z,999.33
2019-01-26T05:03:15.420Z,999.38
2019-01-26T05:03:41.547Z,999.41
2019-01-26T05:04:07.686Z,999.44
2019-01-26T05:04:33.788Z,999.34
2019-01-26T05:04:59.892Z,999.37
2019-01-26T05:05:25.997Z,999.46
2019-01-26T05:05:52.137Z,999.31
2019-01-26T05:06:18.274Z,999.36
2019-01-26T05:06:44.402Z,999.33
2019-01-26T05:07:10.530Z,999.31
2019-01-26T05:07:36.641Z,999.26
2019-01-26T05:08:02.742Z,999.31
2019-01-26T05:08:28.845Z,999.31
2019-01-26T05:08:54.984Z,999.28
2019-01-26T05:09:21.091Z,999.29
2019-01-26T05:09:47.217Z,999.19
2019-01-26T05:10:13.326Z,999.27
2019-01-26T05:10:39.429Z,999.18
2019-01-26T05:11:05.558Z,999.19
2019-01-26T05:11:31.671Z,999.15
2019-01-26T05:11:57.773Z,999.15
2019-01-26T05:12:23.931Z,999.11
2019-01-26T05:12:50.053Z,999.11
2019-01-26T05:13:16.147Z,999.19
2019-01-26T05:13:42.252Z,999.2
2019-01-26T05:14:08.350Z,999.23
2019-01-26T05:14:34.460Z,999.16
2019-01-26T05:15:00.562Z,999.15
2019-01-26T05:15:26.666Z,999.15
2019-01-26T05:15:52.762Z,999.12
2019-01-26T05:16:18.879Z,999.19
2019-01-26T05:16:45.024Z,999.15
2019-01-26T05:17:11.194Z,999.17
2019-01-26T05:17:39.329Z,999.16
2019-01-26T05:18:04.417Z,999.18
2019-01-26T05:18:30.552Z,999.16
2019-01-26T05:18:56.713Z,999.2
2019-01-26T05:19:22.826Z,999.19
2019-01-26T05:19:48.929Z,999.23
2019-01-26T05:20:15.042Z,999.14
2019-01-26T05:20:41.229Z,999.15
2019-01-26T05:21:07.336Z,999.13